Time;durP1;ratioP1;P1;durP2;ratioP2;P2;SDS_P1;SDS_P2;PMS_P1;PMS_P2;Temp;Humidity;BMP_temperature;BMP_pressure;BME280_temperature;BME280_humidity;BME280_pressure;Samples;Min_cycle;Max_cycle;Signal;HPM_P1;HPM_P2
2023/03/17 00:00:37;;;;;;;3.08;1.85;;;;;;;;;;5046272;28;20043;-73
2023/03/17 00:03:04;;;;;;;2.38;1.90;;;;;;;;;;5047166;28;20380;-73
2023/03/17 00:05:32;;;;;;;3.85;2.08;;;;;;;;;;5047122;28;20132;-73
2023/03/17 00:08:01;;;;;;;2.47;2.10;;;;;;;;;;5046933;28;20442;-76
2023/03/17 00:10:27;;;;;;;2.03;1.83;;;;;;;;;;5045968;28;20040;-75
2023/03/17 00:12:54;;;;;;;3.35;2.10;;;;;;;;;;5045478;28;20029;-75
2023/03/17 00:15:20;;;;;;;8.02;2.15;;;;;;;;;;5047470;28;20103;-75
2023/03/17 00:17:47;;;;;;;4.60;1.63;;;;;;;;;;5045515;28;20284;-77
2023/03/17 00:20:18;;;;;;;3.15;2.13;;;;;;;;;;5047381;28;20428;-77
2023/03/17 00:22:45;;;;;;;3.92;1.90;;;;;;;;;;5045806;28;20032;-77
2023/03/17 00:25:18;;;;;;;4.45;1.67;;;;;;;;;;5045827;28;20250;-74
2023/03/17 00:27:44;;;;;;;3.78;1.80;;;;;;;;;;5046812;28;20245;-77
2023/03/17 00:30:10;;;;;;;5.43;1.90;;;;;;;;;;5046691;28;20060;-76
2023/03/17 00:32:38;;;;;;;2.35;1.75;;;;;;;;;;5045419;28;20175;-76
2023/03/17 00:35:05;;;;;;;3.90;2.53;;;;;;;;;;5046766;28;20152;-77
2023/03/17 00:37:31;;;;;;;5.97;2.15;;;;;;;;;;5046351;28;20132;-75
2023/03/17 00:39:57;;;;;;;1.98;1.65;;;;;;;;;;5041797;28;20100;-77
2023/03/17 00:42:23;;;;;;;4.65;2.42;;;;;;;;;;5026626;28;20026;-77
2023/03/17 00:44:49;;;;;;;5.60;2.15;;;;;;;;;;5027057;28;20045;-77
2023/03/17 00:47:16;;;;;;;5.20;2.30;;;;;;;;;;5026218;28;20025;-75
2023/03/17 00:49:42;;;;;;;7.03;2.80;;;;;;;;;;5026384;28;20029;-76
2023/03/17 00:52:08;;;;;;;4.38;2.30;;;;;;;;;;5024967;28;20061;-76
2023/03/17 00:54:34;;;;;;;2.95;2.35;;;;;;;;;;5026528;28;20060;-77
2023/03/17 00:57:00;;;;;;;3.95;2.22;;;;;;;;;;5026640;28;20446;-76
2023/03/17 00:59:28;;;;;;;5.35;1.98;;;;;;;;;;5027010;28;20114;-74
2023/03/17 01:01:55;;;;;;;2.60;2.13;;;;;;;;;;5025434;28;20021;-76
2023/03/17 01:04:21;;;;;;;6.30;2.33;;;;;;;;;;5026429;28;20208;-77
2023/03/17 01:06:48;;;;;;;3.03;2.17;;;;;;;;;;5026076;28;20244;-76
2023/03/17 01:09:18;;;;;;;2.97;2.25;;;;;;;;;;5026081;28;20044;-76
2023/03/17 01:11:44;;;;;;;5.22;2.45;;;;;;;;;;5025313;28;20021;-77
2023/03/17 01:14:11;;;;;;;2.55;2.05;;;;;;;;;;5026324;28;20037;-77
2023/03/17 01:16:37;;;;;;;2.53;2.30;;;;;;;;;;5026504;28;20021;-75
2023/03/17 01:19:04;;;;;;;3.45;1.92;;;;;;;;;;5026148;28;20033;-77
2023/03/17 01:21:30;;;;;;;6.00;2.83;;;;;;;;;;5026381;28;20124;-76
2023/03/17 01:23:56;;;;;;;3.80;2.17;;;;;;;;;;5026282;28;20116;-77
2023/03/17 01:26:22;;;;;;;8.25;2.33;;;;;;;;;;5024338;28;20029;-77
2023/03/17 01:28:48;;;;;;;5.20;2.38;;;;;;;;;;5025689;28;20076;-77
2023/03/17 01:31:14;;;;;;;3.80;2.13;;;;;;;;;;5026286;28;20017;-77
2023/03/17 01:33:40;;;;;;;3.92;2.28;;;;;;;;;;5026128;28;20037;-77
2023/03/17 01:36:06;;;;;;;3.17;1.88;;;;;;;;;;5025106;28;20035;-75
2023/03/17 01:38:32;;;;;;;3.38;2.42;;;;;;;;;;5026396;28;20088;-76
2023/03/17 01:41:00;;;;;;;2.80;2.30;;;;;;;;;;5024349;28;20029;-77
2023/03/17 01:43:28;;;;;;;5.93;2.33;;;;;;;;;;5033467;28;20021;-77
2023/03/17 01:46:13;;;;;;;2.08;1.88;;;;;;;;;;5044257;28;20120;-77
2023/03/17 01:48:54;;;;;;;2.35;1.88;;;;;;;;;;5045510;28;20048;-77
2023/03/17 01:51:26;;;;;;;2.25;1.70;;;;;;;;;;5045855;28;20074;-77
2023/03/17 01:53:53;;;;;;;4.05;2.30;;;;;;;;;;5045498;28;20075;-77
2023/03/17 01:56:19;;;;;;;2.80;1.98;;;;;;;;;;5047043;28;20514;-77
2023/03/17 01:58:50;;;;;;;3.75;1.98;;;;;;;;;;5048265;28;20047;-77
2023/03/17 02:01:16;;;;;;;5.28;2.00;;;;;;;;;;5049802;28;20076;-74
2023/03/17 02:03:44;;;;;;;3.22;2.15;;;;;;;;;;5048323;28;20199;-77
2023/03/17 02:06:10;;;;;;;3.08;1.83;;;;;;;;;;5048421;28;20017;-76
2023/03/17 02:08:36;;;;;;;2.78;2.20;;;;;;;;;;5049062;28;20091;-77
2023/03/17 02:11:03;;;;;;;4.10;2.33;;;;;;;;;;5047745;28;20473;-78
2023/03/17 02:13:30;;;;;;;2.47;2.08;;;;;;;;;;5048037;28;20511;-77
2023/03/17 02:15:56;;;;;;;5.45;2.45;;;;;;;;;;5047944;28;20108;-73
2023/03/17 02:18:22;;;;;;;3.85;2.42;;;;;;;;;;5048784;28;20120;-76
2023/03/17 02:20:48;;;;;;;4.85;3.17;;;;;;;;;;5047989;28;20021;-74
2023/03/17 02:23:16;;;;;;;2.97;2.10;;;;;;;;;;5047651;28;20188;-76
2023/03/17 02:25:44;;;;;;;2.85;2.03;;;;;;;;;;5047819;28;20489;-75
2023/03/17 02:28:12;;;;;;;4.15;2.05;;;;;;;;;;5048465;28;20051;-77
2023/03/17 02:30:39;;;;;;;2.60;2.40;;;;;;;;;;5048914;28;20078;-77
2023/03/17 02:33:05;;;;;;;1.90;1.75;;;;;;;;;;5048702;28;20552;-76
2023/03/17 02:35:31;;;;;;;3.80;2.05;;;;;;;;;;5049032;28;20037;-77
2023/03/17 02:37:57;;;;;;;4.72;2.17;;;;;;;;;;5048260;28;20106;-76
2023/03/17 02:40:24;;;;;;;3.25;2.08;;;;;;;;;;5039895;28;20079;-73
2023/03/17 02:42:50;;;;;;;4.28;1.80;;;;;;;;;;5027735;28;20121;-75
2023/03/17 02:45:17;;;;;;;1.85;1.75;;;;;;;;;;5029129;28;20040;-75
2023/03/17 02:47:43;;;;;;;4.35;2.15;;;;;;;;;;5028722;28;20049;-76
2023/03/17 02:50:16;;;;;;;6.45;2.05;;;;;;;;;;5028780;28;20497;-76
2023/03/17 02:52:42;;;;;;;2.80;2.47;;;;;;;;;;5028669;28;20079;-74
2023/03/17 02:55:09;;;;;;;1.95;1.58;;;;;;;;;;5029002;28;20445;-74
2023/03/17 02:57:35;;;;;;;3.13;2.22;;;;;;;;;;5028371;28;20033;-75
2023/03/17 03:00:01;;;;;;;2.53;1.83;;;;;;;;;;5028506;28;20496;-74
2023/03/17 03:02:27;;;;;;;5.45;2.00;;;;;;;;;;5028799;28;20036;-74
2023/03/17 03:04:53;;;;;;;4.07;2.20;;;;;;;;;;5028612;28;20111;-77
2023/03/17 03:07:19;;;;;;;6.60;2.03;;;;;;;;;;5026858;28;20026;-76
2023/03/17 03:09:46;;;;;;;4.05;2.10;;;;;;;;;;5028145;28;20033;-74
2023/03/17 03:12:12;;;;;;;4.18;2.35;;;;;;;;;;5026897;28;20022;-75
2023/03/17 03:14:38;;;;;;;2.17;1.98;;;;;;;;;;5028203;28;20033;-76
2023/03/17 03:17:04;;;;;;;3.85;2.28;;;;;;;;;;5027000;28;20047;-75
2023/03/17 03:19:30;;;;;;;2.33;2.13;;;;;;;;;;5028206;28;20649;-74
2023/03/17 03:21:56;;;;;;;7.03;3.20;;;;;;;;;;5028801;28;20243;-77
2023/03/17 03:24:23;;;;;;;6.88;2.80;;;;;;;;;;5028560;28;20294;-74
2023/03/17 03:26:49;;;;;;;3.78;2.58;;;;;;;;;;5028277;28;20034;-74
2023/03/17 03:29:15;;;;;;;6.82;2.33;;;;;;;;;;5027921;28;20520;-76
2023/03/17 03:31:41;;;;;;;3.30;2.15;;;;;;;;;;5028173;28;20037;-76
2023/03/17 03:34:07;;;;;;;2.42;1.95;;;;;;;;;;5028113;28;20064;-75
2023/03/17 03:36:33;;;;;;;2.28;1.58;;;;;;;;;;5028134;28;20061;-75
2023/03/17 03:39:00;;;;;;;4.15;2.50;;;;;;;;;;5027826;28;20033;-77
2023/03/17 03:41:26;;;;;;;3.08;2.03;;;;;;;;;;5028033;28;20025;-76
2023/03/17 03:43:52;;;;;;;3.35;2.60;;;;;;;;;;5032566;28;20428;-77
2023/03/17 03:46:18;;;;;;;4.22;2.58;;;;;;;;;;5048041;28;20071;-75
2023/03/17 03:48:44;;;;;;;4.03;2.00;;;;;;;;;;5046861;28;20024;-77
2023/03/17 03:51:10;;;;;;;3.63;1.92;;;;;;;;;;5047338;28;20495;-76
2023/03/17 03:53:36;;;;;;;5.15;2.10;;;;;;;;;;5047365;28;20036;-75
2023/03/17 03:56:02;;;;;;;3.22;2.47;;;;;;;;;;5047255;28;20489;-75
2023/03/17 03:58:28;;;;;;;3.65;2.00;;;;;;;;;;5045973;28;20068;-76
2023/03/17 04:00:54;;;;;;;4.28;1.98;;;;;;;;;;5047462;28;20063;-76
2023/03/17 04:03:20;;;;;;;3.08;2.38;;;;;;;;;;5045768;28;20536;-77
2023/03/17 04:05:46;;;;;;;2.45;1.77;;;;;;;;;;5033819;28;20095;-77
2023/03/17 04:08:12;;;;;;;2.17;1.98;;;;;;;;;;5025844;28;20219;-74
2023/03/17 04:10:38;;;;;;;4.45;2.75;;;;;;;;;;5044971;28;20033;-76
2023/03/17 04:13:05;;;;;;;5.95;2.28;;;;;;;;;;5046741;28;20086;-76
2023/03/17 04:15:31;;;;;;;4.25;2.13;;;;;;;;;;5047739;28;20104;-74
2023/03/17 04:17:57;;;;;;;4.75;2.17;;;;;;;;;;5045388;28;20037;-76
2023/03/17 04:20:23;;;;;;;3.05;1.85;;;;;;;;;;5048282;28;20119;-77
2023/03/17 04:22:50;;;;;;;4.10;2.03;;;;;;;;;;5032468;28;20025;-75
2023/03/17 04:25:16;;;;;;;4.40;2.17;;;;;;;;;;5026717;28;20021;-77
2023/03/17 04:27:43;;;;;;;4.15;1.77;;;;;;;;;;5026803;28;20018;-75
2023/03/17 04:30:12;;;;;;;3.25;2.20;;;;;;;;;;5025560;28;20104;-77
2023/03/17 04:32:38;;;;;;;3.40;2.33;;;;;;;;;;5026785;28;20028;-75
2023/03/17 04:35:05;;;;;;;4.55;1.98;;;;;;;;;;5027002;28;20389;-75
2023/03/17 04:37:31;;;;;;;2.85;2.03;;;;;;;;;;5026993;28;20025;-77
2023/03/17 04:39:57;;;;;;;3.05;2.05;;;;;;;;;;5026486;28;20060;-76
2023/03/17 04:42:23;;;;;;;4.45;1.88;;;;;;;;;;5026606;28;20025;-77
2023/03/17 04:44:49;;;;;;;3.75;2.50;;;;;;;;;;5032925;28;20095;-76
2023/03/17 04:47:15;;;;;;;3.83;2.35;;;;;;;;;;5034692;28;20065;-76
2023/03/17 04:49:41;;;;;;;5.80;2.35;;;;;;;;;;5031322;28;20424;-77
2023/03/17 04:52:07;;;;;;;5.13;2.03;;;;;;;;;;5046513;28;20031;-77
2023/03/17 04:54:33;;;;;;;3.42;2.03;;;;;;;;;;5046332;28;20103;-76
2023/03/17 04:56:59;;;;;;;4.00;2.15;;;;;;;;;;5046101;28;20052;-77
2023/03/17 04:59:26;;;;;;;4.85;2.42;;;;;;;;;;5033877;28;20045;-79
2023/03/17 05:01:52;;;;;;;2.17;1.80;;;;;;;;;;5046373;28;20021;-74
2023/03/17 05:04:18;;;;;;;3.22;1.98;;;;;;;;;;5044467;28;20039;-77
2023/03/17 05:06:44;;;;;;;3.40;2.00;;;;;;;;;;5044943;28;20021;-76
2023/03/17 05:09:10;;;;;;;2.72;1.77;;;;;;;;;;5046051;28;20109;-77
2023/03/17 05:11:36;;;;;;;4.60;1.70;;;;;;;;;;5029831;28;20401;-76
2023/03/17 05:14:02;;;;;;;9.20;2.00;;;;;;;;;;5026365;28;20025;-77
2023/03/17 05:16:28;;;;;;;6.70;2.08;;;;;;;;;;5043338;28;20024;-77
2023/03/17 05:18:54;;;;;;;3.47;2.10;;;;;;;;;;5045856;28;20040;-75
2023/03/17 05:21:21;;;;;;;3.08;2.38;;;;;;;;;;5045930;28;20041;-76
2023/03/17 05:23:47;;;;;;;3.85;2.03;;;;;;;;;;5030346;28;20036;-76
2023/03/17 05:26:13;;;;;;;5.03;1.80;;;;;;;;;;5041921;28;20387;-76
2023/03/17 05:28:39;;;;;;;3.33;2.25;;;;;;;;;;5045332;28;20055;-76
2023/03/17 05:31:05;;;;;;;5.13;2.00;;;;;;;;;;5044733;28;20436;-76
2023/03/17 05:33:31;;;;;;;2.97;1.65;;;;;;;;;;5044689;28;20029;-76
2023/03/17 05:35:57;;;;;;;9.98;2.63;;;;;;;;;;5041597;28;20028;-77
2023/03/17 05:38:23;;;;;;;3.67;2.15;;;;;;;;;;5045985;28;20037;-77
2023/03/17 05:40:51;;;;;;;3.08;2.35;;;;;;;;;;5033253;28;20056;-76
2023/03/17 05:43:17;;;;;;;4.15;2.67;;;;;;;;;;5024349;28;20121;-76
2023/03/17 05:45:44;;;;;;;5.07;2.22;;;;;;;;;;5025408;28;20533;-74
2023/03/17 05:48:11;;;;;;;2.63;2.20;;;;;;;;;;5025654;28;20021;-74
2023/03/17 05:50:38;;;;;;;2.45;1.95;;;;;;;;;;5025311;28;20021;-77
2023/03/17 05:53:05;;;;;;;4.22;2.15;;;;;;;;;;5024791;28;20029;-76
2023/03/17 05:55:31;;;;;;;5.00;2.88;;;;;;;;;;5025973;28;20482;-75
2023/03/17 05:57:57;;;;;;;3.72;1.90;;;;;;;;;;5024947;28;20132;-76
2023/03/17 06:00:23;;;;;;;5.88;2.35;;;;;;;;;;5025776;28;20020;-75
2023/03/17 06:02:49;;;;;;;4.80;2.55;;;;;;;;;;5025798;28;20038;-75
2023/03/17 06:05:15;;;;;;;2.45;2.03;;;;;;;;;;5024507;28;20036;-74
2023/03/17 06:07:41;;;;;;;3.20;1.95;;;;;;;;;;5024594;28;20104;-76
2023/03/17 06:10:08;;;;;;;4.10;2.10;;;;;;;;;;5024046;28;20025;-75
2023/03/17 06:12:34;;;;;;;4.55;2.20;;;;;;;;;;5026062;28;20025;-74
2023/03/17 06:15:00;;;;;;;4.80;2.03;;;;;;;;;;5034484;28;20033;-74
2023/03/17 06:17:27;;;;;;;4.07;3.28;;;;;;;;;;5028117;28;20053;-76
2023/03/17 06:19:53;;;;;;;4.03;2.75;;;;;;;;;;5025040;28;20063;-74
2023/03/17 06:22:19;;;;;;;3.30;2.20;;;;;;;;;;5033568;28;20030;-75
2023/03/17 06:24:45;;;;;;;5.43;2.10;;;;;;;;;;5026250;28;20052;-77
2023/03/17 06:27:13;;;;;;;5.45;2.17;;;;;;;;;;5025339;28;20079;-75
2023/03/17 06:29:39;;;;;;;3.88;2.22;;;;;;;;;;5024083;28;20049;-77
2023/03/17 06:32:08;;;;;;;3.33;2.28;;;;;;;;;;5024293;28;20053;-76
2023/03/17 06:34:34;;;;;;;2.30;1.88;;;;;;;;;;5023145;28;20475;-78
2023/03/17 06:37:00;;;;;;;5.93;3.47;;;;;;;;;;5014949;28;20026;-75
2023/03/17 06:39:26;;;;;;;2.55;1.73;;;;;;;;;;5026199;28;20101;-75
2023/03/17 06:41:53;;;;;;;3.03;1.73;;;;;;;;;;5030612;28;20030;-75
2023/03/17 06:44:19;;;;;;;1.80;1.70;;;;;;;;;;5030002;28;20397;-77
2023/03/17 06:46:45;;;;;;;5.93;1.63;;;;;;;;;;5027937;28;20470;-76
2023/03/17 06:49:12;;;;;;;2.40;1.67;;;;;;;;;;5029867;28;20029;-75
2023/03/17 06:51:38;;;;;;;2.17;1.70;;;;;;;;;;5030062;28;20061;-76
2023/03/17 06:54:05;;;;;;;6.60;3.13;;;;;;;;;;5029790;28;20665;-76
2023/03/17 06:56:31;;;;;;;3.28;1.50;;;;;;;;;;5029183;28;20022;-75
2023/03/17 06:58:57;;;;;;;2.83;2.10;;;;;;;;;;5028999;28;20286;-77
2023/03/17 07:01:24;;;;;;;2.28;1.77;;;;;;;;;;5027610;28;20041;-77
2023/03/17 07:03:50;;;;;;;4.90;1.92;;;;;;;;;;5029859;28;20222;-77
2023/03/17 07:06:16;;;;;;;6.65;1.77;;;;;;;;;;5030553;28;20045;-77
2023/03/17 07:08:42;;;;;;;2.65;1.33;;;;;;;;;;5027328;28;20065;-77
2023/03/17 07:11:08;;;;;;;3.20;1.73;;;;;;;;;;5025669;28;20033;-75
2023/03/17 07:13:36;;;;;;;2.08;1.73;;;;;;;;;;5026129;28;20449;-76
2023/03/17 07:16:02;;;;;;;1.75;1.52;;;;;;;;;;5026091;28;20481;-75
2023/03/17 07:18:33;;;;;;;4.90;1.52;;;;;;;;;;5026826;28;20549;-76
2023/03/17 07:21:00;;;;;;;2.05;1.40;;;;;;;;;;5027968;28;20029;-76
2023/03/17 07:23:26;;;;;;;4.43;1.85;;;;;;;;;;5027422;28;20045;-77
2023/03/17 07:25:52;;;;;;;4.82;1.60;;;;;;;;;;5029073;28;20041;-75
2023/03/17 07:28:20;;;;;;;3.90;1.33;;;;;;;;;;5027581;28;20060;-77
2023/03/17 07:30:48;;;;;;;2.50;1.58;;;;;;;;;;5028311;28;20022;-76
2023/03/17 07:33:16;;;;;;;1.30;1.20;;;;;;;;;;5028859;28;20029;-75
2023/03/17 07:35:42;;;;;;;2.20;1.35;;;;;;;;;;5028412;28;20504;-74
2023/03/17 07:38:08;;;;;;;3.35;1.60;;;;;;;;;;5028376;28;20473;-74
2023/03/17 07:40:35;;;;;;;2.92;1.70;;;;;;;;;;5030892;28;20031;-74
2023/03/17 07:43:01;;;;;;;4.28;1.77;;;;;;;;;;5047692;28;20470;-75
2023/03/17 07:45:27;;;;;;;3.10;1.90;;;;;;;;;;5047926;28;20475;-74
2023/03/17 07:47:53;;;;;;;5.28;1.40;;;;;;;;;;5033271;28;20141;-77
2023/03/17 07:50:19;;;;;;;3.17;2.45;;;;;;;;;;5028621;28;20033;-77
2023/03/17 07:52:45;;;;;;;3.38;1.45;;;;;;;;;;5048489;28;20468;-76
2023/03/17 07:55:11;;;;;;;7.13;1.67;;;;;;;;;;5047938;28;20035;-77
2023/03/17 07:57:38;;;;;;;2.80;1.55;;;;;;;;;;5048405;28;20047;-77
2023/03/17 08:00:08;;;;;;;1.83;1.65;;;;;;;;;;5031122;28;20073;-77
2023/03/17 08:02:35;;;;;;;2.30;1.38;;;;;;;;;;5045250;28;20035;-77
2023/03/17 08:05:02;;;;;;;6.28;1.75;;;;;;;;;;5048045;28;20396;-76
2023/03/17 08:07:28;;;;;;;4.05;1.90;;;;;;;;;;5047987;28;20021;-77
2023/03/17 08:09:54;;;;;;;6.00;1.90;;;;;;;;;;5046585;28;20347;-78
2023/03/17 08:12:20;;;;;;;2.90;1.80;;;;;;;;;;5043997;28;20371;-76
2023/03/17 08:14:47;;;;;;;4.53;2.15;;;;;;;;;;5048621;28;20534;-76
2023/03/17 08:17:16;;;;;;;2.30;1.67;;;;;;;;;;5047941;28;20033;-75
2023/03/17 08:19:45;;;;;;;2.50;2.00;;;;;;;;;;5047799;28;20040;-76
2023/03/17 08:22:11;;;;;;;2.10;1.90;;;;;;;;;;5045999;28;20052;-74
2023/03/17 08:24:39;;;;;;;2.80;2.25;;;;;;;;;;5027457;28;20033;-75
2023/03/17 08:27:06;;;;;;;3.35;2.33;;;;;;;;;;5039946;28;20067;-76
2023/03/17 08:29:32;;;;;;;3.85;2.47;;;;;;;;;;5047966;28;20489;-75
2023/03/17 08:31:58;;;;;;;6.20;2.67;;;;;;;;;;5047312;28;20029;-75
2023/03/17 08:34:25;;;;;;;4.53;2.47;;;;;;;;;;5043858;28;20032;-75
2023/03/17 08:36:51;;;;;;;8.23;2.60;;;;;;;;;;5037848;28;20060;-76
2023/03/17 08:39:18;;;;;;;3.75;2.05;;;;;;;;;;5046791;28;20505;-77
2023/03/17 08:41:44;;;;;;;6.07;2.47;;;;;;;;;;5027190;28;20029;-77
2023/03/17 08:44:11;;;;;;;18.48;3.65;;;;;;;;;;5027447;28;20031;-78
2023/03/17 08:46:39;;;;;;;7.07;2.88;;;;;;;;;;5026859;28;20076;-77
2023/03/17 08:49:05;;;;;;;3.30;2.22;;;;;;;;;;5027766;28;20017;-77
2023/03/17 08:51:33;;;;;;;3.35;2.50;;;;;;;;;;5028773;28;20084;-77
2023/03/17 08:53:59;;;;;;;5.65;2.65;;;;;;;;;;5029176;28;20448;-77
2023/03/17 08:56:26;;;;;;;6.85;3.05;;;;;;;;;;5030466;28;20021;-79
2023/03/17 08:58:52;;;;;;;7.38;3.05;;;;;;;;;;5030341;28;20049;-77
2023/03/17 09:01:20;;;;;;;5.20;2.78;;;;;;;;;;5029684;28;20057;-76
2023/03/17 09:03:46;;;;;;;6.40;3.60;;;;;;;;;;5025768;28;20021;-76
2023/03/17 09:06:12;;;;;;;3.28;2.58;;;;;;;;;;5027339;28;20026;-75
2023/03/17 09:08:43;;;;;;;4.07;2.08;;;;;;;;;;5026824;28;20021;-75
2023/03/17 09:11:10;;;;;;;5.80;2.60;;;;;;;;;;5025136;28;20829;-76
2023/03/17 09:13:40;;;;;;;3.20;2.42;;;;;;;;;;5026968;28;20033;-75
2023/03/17 09:16:09;;;;;;;3.78;2.20;;;;;;;;;;5026817;28;20022;-78
2023/03/17 09:18:35;;;;;;;2.80;2.13;;;;;;;;;;5025142;28;20029;-76
2023/03/17 09:21:02;;;;;;;5.00;2.78;;;;;;;;;;5026314;28;20056;-77
2023/03/17 09:23:28;;;;;;;5.05;2.40;;;;;;;;;;5026560;28;20189;-76
2023/03/17 09:25:54;;;;;;;4.72;2.33;;;;;;;;;;5027423;28;20029;-75
2023/03/17 09:28:20;;;;;;;4.47;2.40;;;;;;;;;;5006046;28;20455;-77
2023/03/17 09:30:46;;;;;;;3.17;2.10;;;;;;;;;;5007506;28;20026;-75
2023/03/17 09:33:13;;;;;;;3.22;2.92;;;;;;;;;;5025779;28;20030;-77
2023/03/17 09:35:40;;;;;;;4.97;2.50;;;;;;;;;;5026351;28;20030;-76
2023/03/17 09:38:07;;;;;;;3.58;2.38;;;;;;;;;;5025148;28;20087;-76
2023/03/17 09:40:36;;;;;;;5.03;2.97;;;;;;;;;;5026557;28;20018;-77
2023/03/17 09:43:02;;;;;;;4.00;2.65;;;;;;;;;;5042397;28;20469;-76
2023/03/17 09:45:38;;;;;;;8.38;2.47;;;;;;;;;;5045416;28;20057;-75
2023/03/17 09:48:23;;;;;;;4.75;2.35;;;;;;;;;;5044652;28;20135;-76
2023/03/17 09:50:49;;;;;;;6.43;2.00;;;;;;;;;;5046749;28;20246;-78
2023/03/17 09:53:23;;;;;;;3.47;2.55;;;;;;;;;;5046032;28;20021;-77
2023/03/17 09:55:52;;;;;;;6.13;2.55;;;;;;;;;;5046164;28;20473;-76
2023/03/17 09:58:18;;;;;;;;;;;;;;;;;;5044724;28;20528;-78
2023/03/17 10:00:45;;;;;;;2.65;2.00;;;;;;;;;;5026086;28;19908;-77
2023/03/17 10:03:12;;;;;;;6.78;3.22;;;;;;;;;;5044335;28;20017;-77
2023/03/17 10:05:38;;;;;;;8.77;3.35;;;;;;;;;;5046567;28;20198;-77
2023/03/17 10:08:07;;;;;;;3.83;2.45;;;;;;;;;;5045230;28;20040;-77
2023/03/17 10:10:36;;;;;;;4.80;2.97;;;;;;;;;;5041056;28;20389;-78
2023/03/17 10:13:05;;;;;;;6.60;3.17;;;;;;;;;;5041090;28;20087;-77
2023/03/17 10:15:31;;;;;;;8.90;2.53;;;;;;;;;;5046448;28;20027;-77
2023/03/17 10:17:58;;;;;;;5.93;2.67;;;;;;;;;;5036217;28;20494;-78
2023/03/17 10:20:27;;;;;;;3.75;2.42;;;;;;;;;;5030221;28;20038;-78
2023/03/17 10:23:11;;;;;;;4.47;2.47;;;;;;;;;;5035172;28;20036;-78
2023/03/17 10:25:38;;;;;;;6.35;2.38;;;;;;;;;;5029764;28;20033;-78
2023/03/17 10:28:24;;;;;;;2.33;1.98;;;;;;;;;;5042574;28;20102;-78
2023/03/17 10:30:51;;;;;;;4.10;2.33;;;;;;;;;;5048055;28;20036;-78
2023/03/17 10:33:18;;;;;;;3.97;2.45;;;;;;;;;;5050099;28;20022;-77
2023/03/17 10:35:44;;;;;;;2.63;2.00;;;;;;;;;;5035776;28;20022;-76
2023/03/17 10:38:18;;;;;;;2.97;2.13;;;;;;;;;;5043820;28;20041;-75
2023/03/17 10:40:46;;;;;;;3.25;2.50;;;;;;;;;;5037722;28;20383;-76
2023/03/17 10:43:17;;;;;;;3.53;2.10;;;;;;;;;;5029366;28;20529;-76
2023/03/17 10:45:53;;;;;;;2.95;2.35;;;;;;;;;;5030401;28;20425;-76
2023/03/17 10:48:20;;;;;;;4.38;2.22;;;;;;;;;;5027936;28;20390;-75
2023/03/17 10:50:46;;;;;;;6.25;2.15;;;;;;;;;;5027798;28;20033;-76
2023/03/17 10:53:26;;;;;;;8.27;2.47;;;;;;;;;;5029421;28;20486;-75
2023/03/17 10:55:54;;;;;;;2.78;2.00;;;;;;;;;;5027520;28;20451;-79
2023/03/17 10:58:38;;;;;;;5.70;2.50;;;;;;;;;;5027770;28;20049;-77
2023/03/17 11:01:27;;;;;;;5.47;3.05;;;;;;;;;;5028774;28;20064;-77
2023/03/17 11:03:54;;;;;;;5.72;3.38;;;;;;;;;;5014966;28;20138;-76
2023/03/17 11:06:30;;;;;;;6.55;2.20;;;;;;;;;;5027369;28;20029;-77
2023/03/17 11:08:56;;;;;;;3.95;2.28;;;;;;;;;;5029082;28;20033;-77
2023/03/17 11:11:22;;;;;;;9.43;4.68;;;;;;;;;;5029659;28;20064;-77
2023/03/17 11:13:48;;;;;;;7.38;3.40;;;;;;;;;;5027604;28;20032;-78
2023/03/17 11:16:21;;;;;;;3.80;2.33;;;;;;;;;;5028728;28;20116;-78
2023/03/17 11:18:48;;;;;;;7.82;3.22;;;;;;;;;;5028041;28;20071;-77
2023/03/17 11:21:27;;;;;;;5.60;3.05;;;;;;;;;;5027180;28;20440;-78
2023/03/17 11:23:53;;;;;;;;;;;;;;;;;;5025917;28;20033;-77
2023/03/17 11:26:38;;;;;;;4.35;2.50;;;;;;;;;;5026487;28;19920;-77
2023/03/17 11:29:14;;;;;;;2.67;1.98;;;;;;;;;;5025495;28;20081;-78
2023/03/17 11:31:52;;;;;;;5.00;1.92;;;;;;;;;;5025518;28;20038;-78
2023/03/17 11:34:24;;;;;;;2.40;1.87;;;;;;;;;;5007164;28;20497;-78
2023/03/17 11:37:01;;;;;;;1.88;1.77;;;;;;;;;;5025819;28;20022;-77
2023/03/17 11:39:32;;;;;;;9.00;2.58;;;;;;;;;;5043929;28;20072;-78
2023/03/17 11:41:58;;;;;;;2.85;2.10;;;;;;;;;;5026756;28;20044;-78
2023/03/17 11:44:37;;;;;;;4.35;2.25;;;;;;;;;;5027019;28;20033;-78
2023/03/17 11:47:13;;;;;;;5.65;2.45;;;;;;;;;;5026569;28;20029;-78
2023/03/17 11:49:40;;;;;;;2.45;1.63;;;;;;;;;;5028383;28;20025;-78
2023/03/17 11:52:38;;;;;;;3.47;1.65;;;;;;;;;;5028023;28;20040;-79
2023/03/17 11:55:04;;;;;;;2.35;1.98;;;;;;;;;;4993972;28;20046;-79
2023/03/17 11:57:39;;;;;;;6.22;2.25;;;;;;;;;;5026297;28;20068;-77
2023/03/17 12:00:06;;;;;;;4.00;2.08;;;;;;;;;;5026489;28;20106;-76
2023/03/17 12:02:36;;;;;;;3.35;2.70;;;;;;;;;;5026526;28;20057;-76
2023/03/17 12:05:03;;;;;;;;;;;;;;;;;;5028475;28;20175;-78
2023/03/17 12:07:40;;;;;;;4.03;2.33;;;;;;;;;;5027645;28;19909;-76
2023/03/17 12:10:21;;;;;;;6.65;2.42;;;;;;;;;;5027917;28;20025;-77
2023/03/17 12:12:53;;;;;;;2.28;1.83;;;;;;;;;;5027682;28;20029;-77
2023/03/17 12:15:25;;;;;;;4.03;1.80;;;;;;;;;;5026198;28;20144;-76
2023/03/17 12:17:55;;;;;;;4.18;2.42;;;;;;;;;;5027694;28;20036;-77
2023/03/17 12:20:27;;;;;;;3.08;2.05;;;;;;;;;;5026428;28;20125;-76
2023/03/17 12:22:55;;;;;;;3.67;1.85;;;;;;;;;;5027519;28;20021;-77
2023/03/17 12:25:31;;;;;;;3.85;1.95;;;;;;;;;;5027626;28;20064;-75
2023/03/17 12:28:03;;;;;;;3.08;2.35;;;;;;;;;;5027077;28;20014;-76
2023/03/17 12:30:32;;;;;;;6.07;2.20;;;;;;;;;;5027761;28;20049;-76
2023/03/17 12:33:04;;;;;;;13.05;2.65;;;;;;;;;;5026288;28;20120;-76
2023/03/17 12:35:35;;;;;;;2.55;1.98;;;;;;;;;;5030127;28;20055;-75
2023/03/17 12:38:05;;;;;;;3.22;2.65;;;;;;;;;;5038072;28;20032;-75
2023/03/17 12:40:46;;;;;;;3.95;2.05;;;;;;;;;;5036665;28;20024;-75
2023/03/17 12:43:12;;;;;;;4.78;1.90;;;;;;;;;;5036445;28;20206;-76
2023/03/17 12:45:38;;;;;;;9.15;1.88;;;;;;;;;;5036733;28;20076;-77
2023/03/17 12:48:30;;;;;;;3.30;1.48;;;;;;;;;;5035590;28;20057;-76
2023/03/17 12:51:16;;;;;;;2.40;1.60;;;;;;;;;;5033612;28;20045;-77
2023/03/17 12:53:44;;;;;;;3.20;1.85;;;;;;;;;;5043572;28;20237;-75
2023/03/17 12:56:16;;;;;;;4.60;2.13;;;;;;;;;;5036290;28;20044;-75
2023/03/17 12:58:46;;;;;;;3.97;1.80;;;;;;;;;;5036824;28;20264;-75
2023/03/17 13:01:31;;;;;;;4.00;1.73;;;;;;;;;;5035697;28;20056;-77
2023/03/17 13:04:02;;;;;;;3.80;1.63;;;;;;;;;;5034660;28;20044;-77
2023/03/17 13:06:29;;;;;;;2.60;1.52;;;;;;;;;;5036951;28;20032;-75
2023/03/17 13:08:56;;;;;;;5.32;1.50;;;;;;;;;;5022448;28;20497;-76
2023/03/17 13:11:28;;;;;;;1.88;1.27;;;;;;;;;;5013720;28;20033;-76
2023/03/17 13:13:54;;;;;;;2.35;1.20;;;;;;;;;;5029122;28;20021;-76
2023/03/17 13:16:26;;;;;;;4.82;1.35;;;;;;;;;;5021862;28;20033;-75
2023/03/17 13:19:05;;;;;;;2.17;1.17;;;;;;;;;;5025687;28;20071;-75
2023/03/17 13:21:31;;;;;;;2.45;1.30;;;;;;;;;;5022813;28;20029;-75
2023/03/17 13:23:59;;;;;;;0.77;0.77;;;;;;;;;;5024400;28;20173;-76
2023/03/17 13:26:44;;;;;;;0.82;0.82;;;;;;;;;;5021098;28;20022;-76
2023/03/17 13:29:29;;;;;;;2.10;0.70;;;;;;;;;;5027231;28;20057;-75
2023/03/17 13:32:13;;;;;;;0.98;0.80;;;;;;;;;;5025934;28;20143;-75
2023/03/17 13:34:47;;;;;;;1.00;0.90;;;;;;;;;;5026098;28;20091;-75
2023/03/17 13:37:16;;;;;;;0.75;0.75;;;;;;;;;;5028142;28;20225;-75
2023/03/17 13:39:51;;;;;;;1.52;0.95;;;;;;;;;;5025997;28;20041;-75
2023/03/17 13:42:33;;;;;;;0.50;0.50;;;;;;;;;;5022239;28;20057;-76
2023/03/17 13:45:18;;;;;;;1.92;0.70;;;;;;;;;;5023249;28;20057;-77
2023/03/17 13:47:44;;;;;;;1.73;0.95;;;;;;;;;;5022550;28;20025;-76
2023/03/17 13:50:15;;;;;;;1.40;0.80;;;;;;;;;;5011214;28;20068;-77
2023/03/17 13:52:47;;;;;;;0.80;0.80;;;;;;;;;;5021082;28;20049;-76
2023/03/17 13:55:19;;;;;;;0.63;0.45;;;;;;;;;;5015064;28;20664;-75
2023/03/17 13:58:04;;;;;;;0.88;0.88;;;;;;;;;;5021627;28;20375;-75
2023/03/17 14:00:32;;;;;;;1.58;0.73;;;;;;;;;;5018721;28;20034;-76
2023/03/17 14:03:21;;;;;;;0.77;0.68;;;;;;;;;;5024739;28;20055;-76
2023/03/17 14:05:49;;;;;;;0.85;0.50;;;;;;;;;;5006083;28;20041;-76
2023/03/17 14:08:21;;;;;;;2.47;0.70;;;;;;;;;;5016142;28;20066;-75
2023/03/17 14:10:54;;;;;;;5.32;1.00;;;;;;;;;;5020335;28;20094;-76
2023/03/17 14:13:26;;;;;;;0.90;0.77;;;;;;;;;;5022369;28;20022;-76
2023/03/17 14:16:06;;;;;;;1.80;0.80;;;;;;;;;;5026579;28;20037;-75
2023/03/17 14:18:33;;;;;;;4.53;0.80;;;;;;;;;;5013908;28;20045;-76
2023/03/17 14:21:01;;;;;;;1.27;0.90;;;;;;;;;;5025453;28;20030;-76
2023/03/17 14:23:28;;;;;;;2.78;0.68;;;;;;;;;;5024010;28;20334;-76
2023/03/17 14:25:55;;;;;;;2.85;0.80;;;;;;;;;;5020914;28;20062;-75
2023/03/17 14:28:29;;;;;;;1.50;1.10;;;;;;;;;;5023318;28;20072;-76
2023/03/17 14:31:00;;;;;;;1.08;0.82;;;;;;;;;;5023468;28;20018;-75
2023/03/17 14:33:27;;;;;;;1.77;1.10;;;;;;;;;;5019556;28;20021;-77
2023/03/17 14:35:55;;;;;;;0.77;0.73;;;;;;;;;;5035738;28;20432;-77
2023/03/17 14:38:29;;;;;;;1.98;0.82;;;;;;;;;;5037765;28;20044;-75
2023/03/17 14:41:00;;;;;;;1.17;1.00;;;;;;;;;;5035979;28;20025;-76
2023/03/17 14:43:26;;;;;;;1.55;0.80;;;;;;;;;;5028386;28;20132;-76
2023/03/17 14:45:54;;;;;;;0.90;0.80;;;;;;;;;;5035489;28;20124;-76
2023/03/17 14:48:25;;;;;;;1.77;0.95;;;;;;;;;;5024509;28;20029;-76
2023/03/17 14:50:56;;;;;;;1.05;0.65;;;;;;;;;;5020377;28;20022;-75